Terminal Aerodrome Forecast
Issued by NWS Charleston, WV

Current Version | Previous Version | Text Only | Print | Product List | Glossary Off
Versions: 1 2 3 4 5 6 7 8 9 10 11 12 13 14 15 16 17 18 19 20 21 22 23 24 25

000
FTUS41 KRLX 221800 AAA
TAFPKB
TAF AMD
KPKB 221821Z 2218/2318 21005KT P6SM FEW045
     FM222200 20004KT 6SM BR FEW050
     FM231400 23005KT P6SM SCT050
     FM231700 26007KT P6SM VCTS SCT040CB
      AMD NOT SKED=

USA.gov is the U.S. government's official web portal to all federal, state and local government web resources and services.